createdAt,value
2023-01-20T00:01:14.529Z,6.18
2023-01-20T00:03:42.606Z,5.60
2023-01-20T00:06:09.817Z,5.63
2023-01-20T00:08:36.732Z,5.50
2023-01-20T00:11:12.089Z,5.97
2023-01-20T00:13:39.690Z,6.38
2023-01-20T00:16:09.160Z,6.15
2023-01-20T00:18:36.465Z,6.68
2023-01-20T00:21:11.689Z,5.82
2023-01-20T00:23:38.929Z,5.57
2023-01-20T00:26:07.269Z,6.05
2023-01-20T00:28:35.252Z,5.70
2023-01-20T00:31:18.617Z,5.75
2023-01-20T00:33:46.840Z,6.00
2023-01-20T00:36:14.930Z,5.90
2023-01-20T00:38:42.355Z,6.50
2023-01-20T00:41:10.019Z,6.68
2023-01-20T00:43:37.524Z,6.03
2023-01-20T00:46:05.262Z,6.00
2023-01-20T00:48:32.818Z,5.85
2023-01-20T00:50:59.947Z,5.97
2023-01-20T00:53:26.973Z,6.03
2023-01-20T00:55:53.848Z,5.90
2023-01-20T00:58:20.600Z,5.72
2023-01-20T01:00:48.418Z,5.85
2023-01-20T01:03:15.568Z,5.90
2023-01-20T01:05:42.917Z,6.60
2023-01-20T01:08:09.751Z,6.10
2023-01-20T01:10:36.493Z,5.80
2023-01-20T01:13:04.277Z,5.72
2023-01-20T01:15:31.155Z,5.72
2023-01-20T01:17:59.219Z,6.05
2023-01-20T01:20:27.051Z,5.60
2023-01-20T01:22:53.833Z,6.05
2023-01-20T01:25:20.833Z,6.20
2023-01-20T01:27:47.630Z,6.30
2023-01-20T01:30:14.406Z,6.10
2023-01-20T01:32:41.120Z,5.85
2023-01-20T01:35:08.225Z,6.07
2023-01-20T01:37:34.972Z,6.18
2023-01-20T01:40:01.785Z,5.97
2023-01-20T01:42:28.853Z,6.28
2023-01-20T01:45:11.292Z,5.78
2023-01-20T01:47:44.388Z,6.25
2023-01-20T01:50:21.124Z,6.32
2023-01-20T01:52:51.041Z,5.63
2023-01-20T01:55:19.117Z,6.20
2023-01-20T01:57:47.456Z,5.53
2023-01-20T02:00:14.551Z,5.70
2023-01-20T02:02:43.602Z,5.65
2023-01-20T02:05:12.560Z,5.63
2023-01-20T02:07:40.375Z,5.50
2023-01-20T02:10:07.447Z,5.43
2023-01-20T02:12:34.371Z,5.20
2023-01-20T02:15:02.823Z,5.45
2023-01-20T02:17:34.084Z,6.07
2023-01-20T02:20:27.877Z,5.70
2023-01-20T02:23:13.362Z,6.03
2023-01-20T02:25:43.180Z,5.93
2023-01-20T02:28:15.561Z,6.05
2023-01-20T02:30:54.200Z,5.93
2023-01-20T02:33:31.659Z,5.65
2023-01-20T02:36:22.890Z,6.00
2023-01-20T02:39:00.984Z,5.93
2023-01-20T02:42:00.287Z,5.65
2023-01-20T02:44:48.156Z,6.13
2023-01-20T02:47:24.478Z,5.93
2023-01-20T02:49:54.946Z,6.18
2023-01-20T02:52:26.797Z,5.90
2023-01-20T02:54:58.409Z,5.93
2023-01-20T02:57:33.013Z,6.03
2023-01-20T03:00:08.074Z,6.57
2023-01-20T03:02:37.505Z,6.28
2023-01-20T03:05:21.006Z,6.00
2023-01-20T03:07:49.536Z,5.88
2023-01-20T03:10:20.490Z,5.55
2023-01-20T03:12:54.359Z,5.90
2023-01-20T03:15:25.901Z,5.78
2023-01-20T03:17:52.733Z,5.10
2023-01-20T03:20:19.519Z,5.90
2023-01-20T03:22:46.273Z,5.43
2023-01-20T03:25:14.479Z,5.60
2023-01-20T03:27:42.483Z,5.43
2023-01-20T03:30:13.965Z,5.65
2023-01-20T03:32:44.169Z,5.35
2023-01-20T03:35:11.242Z,5.30
2023-01-20T03:37:38.072Z,6.18
2023-01-20T03:40:05.512Z,5.07
2023-01-20T03:42:41.670Z,4.57
2023-01-20T03:45:26.580Z,4.90
2023-01-20T03:48:12.989Z,5.38
2023-01-20T03:50:44.114Z,5.25
2023-01-20T03:53:13.998Z,4.80
2023-01-20T03:55:51.906Z,5.57
2023-01-20T03:58:26.129Z,5.03
2023-01-20T04:00:53.328Z,5.15
2023-01-20T04:03:25.237Z,4.60
2023-01-20T04:05:52.469Z,5.35
2023-01-20T04:08:24.456Z,5.25
2023-01-20T04:10:52.894Z,4.60
2023-01-20T04:13:19.675Z,5.15
2023-01-20T04:15:46.851Z,5.43
2023-01-20T04:18:21.870Z,5.45
2023-01-20T04:20:52.332Z,5.80
2023-01-20T04:23:31.649Z,5.13
2023-01-20T04:25:58.384Z,5.40
2023-01-20T04:28:25.989Z,5.60
2023-01-20T04:30:52.934Z,5.20
2023-01-20T04:33:19.690Z,5.22
2023-01-20T04:35:46.420Z,5.30
2023-01-20T04:38:13.130Z,5.93
2023-01-20T04:40:39.904Z,5.95
2023-01-20T04:43:06.632Z,6.13
2023-01-20T04:45:33.402Z,6.28
2023-01-20T04:48:00.145Z,6.78
2023-01-20T04:50:26.853Z,6.22
2023-01-20T04:52:56.692Z,6.85
2023-01-20T04:55:23.410Z,7.50
2023-01-20T04:57:50.209Z,6.85
2023-01-20T05:00:20.036Z,6.80
2023-01-20T05:02:47.221Z,6.80
2023-01-20T05:05:14.565Z,7.10
2023-01-20T05:07:41.453Z,6.50
2023-01-20T05:10:08.740Z,7.60
2023-01-20T05:12:36.421Z,7.22
2023-01-20T05:15:03.364Z,7.25
2023-01-20T05:17:30.107Z,7.63
2023-01-20T05:19:56.837Z,7.63
2023-01-20T05:22:23.988Z,7.05
2023-01-20T05:24:50.720Z,7.68
2023-01-20T05:27:17.414Z,8.05
2023-01-20T05:29:44.178Z,7.43
2023-01-20T05:32:11.083Z,8.07
2023-01-20T05:34:37.812Z,8.90
2023-01-20T05:37:04.510Z,8.60
2023-01-20T05:39:31.190Z,9.52
2023-01-20T05:41:57.929Z,9.32
2023-01-20T05:44:24.712Z,9.57
2023-01-20T05:46:51.421Z,9.60
2023-01-20T05:49:18.173Z,10.10
2023-01-20T05:51:44.913Z,9.93
2023-01-20T05:54:11.648Z,9.65
2023-01-20T05:56:38.404Z,9.88
2023-01-20T05:59:06.192Z,9.35
2023-01-20T06:01:33.001Z,9.70
2023-01-20T06:03:59.848Z,9.70
2023-01-20T06:06:26.834Z,9.55
2023-01-20T06:08:53.635Z,9.98
2023-01-20T06:11:20.767Z,10.18
2023-01-20T06:13:48.573Z,10.80
2023-01-20T06:16:17.557Z,10.45
2023-01-20T06:18:44.614Z,9.40
2023-01-20T06:21:11.711Z,7.57
2023-01-20T06:23:38.727Z,7.28
2023-01-20T06:26:06.684Z,7.32
2023-01-20T06:28:34.040Z,6.63
2023-01-20T06:31:07.083Z,6.53
2023-01-20T06:33:34.519Z,6.28
2023-01-20T06:36:01.909Z,5.93
2023-01-20T06:38:30.980Z,6.55
2023-01-20T06:41:10.457Z,6.70
2023-01-20T06:43:40.176Z,6.88
2023-01-20T06:46:09.897Z,6.47
2023-01-20T06:48:37.082Z,6.70
2023-01-20T06:51:06.020Z,7.45
2023-01-20T06:53:33.076Z,6.90
2023-01-20T06:56:01.617Z,7.28
2023-01-20T06:58:30.696Z,7.88
2023-01-20T07:00:59.071Z,7.65
2023-01-20T07:03:25.868Z,6.68
2023-01-20T07:06:00.024Z,7.28
2023-01-20T07:08:27.076Z,7.35
2023-01-20T07:10:53.830Z,7.65
2023-01-20T07:13:20.563Z,8.30
2023-01-20T07:15:47.257Z,7.53
2023-01-20T07:18:14.073Z,7.38
2023-01-20T07:20:40.815Z,7.88
2023-01-20T07:23:07.599Z,8.23
2023-01-20T07:25:34.364Z,7.70
2023-01-20T07:28:01.089Z,8.63
2023-01-20T07:30:27.842Z,8.32
2023-01-20T07:32:54.603Z,8.23
2023-01-20T07:35:21.402Z,8.30
2023-01-20T07:37:48.097Z,8.98
2023-01-20T07:40:14.889Z,8.77
2023-01-20T07:42:41.905Z,8.80
2023-01-20T07:45:08.986Z,8.90
2023-01-20T07:47:35.737Z,8.18
2023-01-20T07:50:02.485Z,8.35
2023-01-20T07:52:29.181Z,9.18
2023-01-20T07:54:55.849Z,8.63
2023-01-20T07:57:22.564Z,8.63
2023-01-20T07:59:49.301Z,8.98
2023-01-20T08:02:16.127Z,9.43
2023-01-20T08:04:43.171Z,9.32
2023-01-20T08:07:09.861Z,9.02
2023-01-20T08:09:36.601Z,8.77
2023-01-20T08:12:03.436Z,9.10
2023-01-20T08:14:30.124Z,8.82
2023-01-20T08:16:57.096Z,9.23
2023-01-20T08:19:23.909Z,9.07
2023-01-20T08:21:50.598Z,9.48
2023-01-20T08:24:17.252Z,9.60
2023-01-20T08:26:44.002Z,9.38
2023-01-20T08:29:10.852Z,9.43
2023-01-20T08:31:38.149Z,9.20
2023-01-20T08:34:05.292Z,9.10
2023-01-20T08:36:36.036Z,9.00
2023-01-20T08:39:05.121Z,8.85
2023-01-20T08:41:35.185Z,8.88
2023-01-20T08:46:29.232Z,8.60
2023-01-20T08:48:56.252Z,8.23
2023-01-20T08:51:27.233Z,8.93
2023-01-20T08:53:53.959Z,8.60
2023-01-20T08:56:21.579Z,8.27
2023-01-20T08:58:48.572Z,7.78
2023-01-20T09:01:20.973Z,8.23
2023-01-20T09:04:03.894Z,7.88
2023-01-20T09:06:44.248Z,8.00
2023-01-20T09:09:11.296Z,8.20
2023-01-20T09:11:39.409Z,8.52
2023-01-20T09:14:06.529Z,9.20
2023-01-20T09:16:33.268Z,8.50
2023-01-20T09:18:59.991Z,8.75
2023-01-20T09:21:26.793Z,7.82
2023-01-20T09:23:53.578Z,7.95
2023-01-20T09:26:34.651Z,8.20
2023-01-20T09:29:09.210Z,8.00
2023-01-20T09:31:38.402Z,8.70
2023-01-20T09:34:05.249Z,8.65
2023-01-20T09:36:32.032Z,7.93
2023-01-20T09:39:17.343Z,9.13
2023-01-20T09:42:06.947Z,7.78
2023-01-20T09:44:56.523Z,7.03
2023-01-20T09:47:36.005Z,5.78
2023-01-20T09:50:24.321Z,5.63
2023-01-20T09:53:04.670Z,5.80
2023-01-20T09:55:53.292Z,5.40
2023-01-20T09:58:45.146Z,5.68
2023-01-20T10:01:36.566Z,5.78
2023-01-20T10:04:12.455Z,5.43
2023-01-20T10:06:57.453Z,6.22
2023-01-20T10:09:32.734Z,5.57
2023-01-20T10:12:30.911Z,5.70
2023-01-20T10:15:09.458Z,5.65
2023-01-20T10:17:44.014Z,5.95
2023-01-20T10:20:29.886Z,5.47
2023-01-20T10:23:16.312Z,4.93
2023-01-20T10:26:06.065Z,4.70
2023-01-20T10:28:38.238Z,4.72
2023-01-20T10:31:05.644Z,5.07
2023-01-20T10:33:38.828Z,4.63
2023-01-20T10:36:12.984Z,4.10
2023-01-20T10:39:04.405Z,4.32
2023-01-20T10:41:31.079Z,4.57
2023-01-20T10:43:59.626Z,4.97
2023-01-20T10:46:40.812Z,5.28
2023-01-20T10:49:29.145Z,4.60
2023-01-20T10:52:22.207Z,4.95
2023-01-20T10:54:59.132Z,5.22
2023-01-20T10:57:26.369Z,4.90
2023-01-20T10:59:57.364Z,4.80
2023-01-20T11:02:31.430Z,5.22
2023-01-20T11:05:00.177Z,4.97
2023-01-20T11:07:28.781Z,4.75
2023-01-20T11:09:55.681Z,4.80
2023-01-20T11:12:27.178Z,4.72
2023-01-20T11:14:55.824Z,3.70
2023-01-20T11:17:22.629Z,4.22
2023-01-20T11:19:53.703Z,3.92
2023-01-20T11:22:31.076Z,3.97
2023-01-20T11:25:04.087Z,3.90
2023-01-20T11:27:45.919Z,3.30
2023-01-20T11:30:33.843Z,3.90
2023-01-20T11:33:15.732Z,3.05
2023-01-20T11:36:06.621Z,3.80
2023-01-20T11:38:45.240Z,3.60
2023-01-20T11:41:23.883Z,3.97
2023-01-20T11:43:55.912Z,4.50
2023-01-20T11:46:33.736Z,4.20
2023-01-20T11:49:26.749Z,4.43
2023-01-20T11:51:55.710Z,4.22
2023-01-20T11:54:28.419Z,4.60
2023-01-20T11:57:10.325Z,4.35
2023-01-20T11:59:46.599Z,4.75
2023-01-20T12:02:13.362Z,4.65
2023-01-20T12:04:56.347Z,4.43
2023-01-20T12:07:44.615Z,4.32
2023-01-20T12:10:25.757Z,5.15
2023-01-20T12:13:18.129Z,4.97
2023-01-20T12:15:52.937Z,5.05
2023-01-20T12:18:56.922Z,5.28
2023-01-20T12:21:34.659Z,5.35
2023-01-20T12:24:38.578Z,5.15
2023-01-20T12:27:20.572Z,5.72
2023-01-20T12:29:55.056Z,6.18
2023-01-20T12:32:21.905Z,6.13
2023-01-20T12:34:48.708Z,6.32
2023-01-20T12:37:21.598Z,6.50
2023-01-20T12:39:54.061Z,7.07
2023-01-20T12:42:20.761Z,6.68
2023-01-20T12:45:07.872Z,6.97
2023-01-20T12:47:46.632Z,7.03
2023-01-20T12:50:52.829Z,7.47
2023-01-20T12:53:25.324Z,9.27
2023-01-20T12:56:03.032Z,9.35
2023-01-20T12:59:06.680Z,9.82
2023-01-20T13:01:55.058Z,9.90
2023-01-20T13:04:40.387Z,10.40
2023-01-20T13:07:31.474Z,10.98
2023-01-20T13:10:04.097Z,10.30
2023-01-20T13:12:38.757Z,10.63
2023-01-20T13:15:17.461Z,10.52
2023-01-20T13:18:04.581Z,10.40
2023-01-20T13:20:31.570Z,10.57
2023-01-20T13:23:04.493Z,11.32
2023-01-20T13:25:32.468Z,10.25
2023-01-20T13:27:59.699Z,11.35
2023-01-20T13:30:57.461Z,10.73
2023-01-20T13:33:33.496Z,11.18
2023-01-20T13:36:13.419Z,10.88
2023-01-20T13:38:40.553Z,11.25
2023-01-20T13:41:08.468Z,11.70
2023-01-20T13:43:44.346Z,12.60
2023-01-20T13:46:17.481Z,11.48
2023-01-20T13:49:23.681Z,12.13
2023-01-20T13:51:50.475Z,11.35
2023-01-20T13:54:23.953Z,12.13
2023-01-20T13:56:51.784Z,11.35
2023-01-20T13:59:18.511Z,10.60
2023-01-20T14:01:45.254Z,11.68
2023-01-20T14:04:20.351Z,11.27
2023-01-20T14:06:49.501Z,11.35
2023-01-20T14:09:26.439Z,10.90
2023-01-20T14:11:55.801Z,12.43
2023-01-20T14:14:25.103Z,12.67
2023-01-20T14:16:51.981Z,11.93
2023-01-20T14:19:24.839Z,11.82
2023-01-20T14:21:54.762Z,12.05
2023-01-20T14:24:38.030Z,12.55
2023-01-20T14:27:27.098Z,12.60
2023-01-20T14:29:55.369Z,11.88
2023-01-20T14:32:37.050Z,11.82
2023-01-20T14:35:16.940Z,12.27
2023-01-20T14:37:44.349Z,12.35
2023-01-20T14:40:28.422Z,12.23
2023-01-20T14:43:02.476Z,13.25
2023-01-20T14:45:32.353Z,13.60
2023-01-20T14:48:01.350Z,12.80
2023-01-20T14:50:29.162Z,12.70
2023-01-20T14:52:56.248Z,12.68
2023-01-20T14:55:35.397Z,13.15
2023-01-20T14:58:18.924Z,13.07
2023-01-20T15:00:47.177Z,13.00
2023-01-20T15:03:21.878Z,13.10
2023-01-20T15:06:00.590Z,13.25
2023-01-20T15:08:57.011Z,13.38
2023-01-20T15:11:32.551Z,14.18
2023-01-20T15:14:02.294Z,13.98
2023-01-20T15:16:31.716Z,13.93
2023-01-20T15:19:13.957Z,14.38
2023-01-20T15:21:47.996Z,14.23
2023-01-20T15:24:23.798Z,14.50
2023-01-20T15:26:52.658Z,14.23
2023-01-20T15:29:39.624Z,15.23
2023-01-20T15:32:12.723Z,14.55
2023-01-20T15:34:39.436Z,14.23
2023-01-20T15:37:21.073Z,15.02
2023-01-20T15:39:47.891Z,13.93
2023-01-20T15:42:15.352Z,14.60
2023-01-20T15:44:42.113Z,15.40
2023-01-20T15:47:31.160Z,14.18
2023-01-20T15:49:58.684Z,14.63
2023-01-20T15:52:25.711Z,15.27
2023-01-20T15:54:52.466Z,15.02
2023-01-20T15:57:19.306Z,15.48
2023-01-20T15:59:46.118Z,15.30
2023-01-20T16:02:21.233Z,15.18
2023-01-20T16:04:48.029Z,15.45
2023-01-20T16:07:20.032Z,15.55
2023-01-20T16:09:47.010Z,15.38
2023-01-20T16:12:15.580Z,15.27
2023-01-20T16:14:43.046Z,14.50
2023-01-20T16:17:23.936Z,15.43
2023-01-20T16:19:51.313Z,15.68
2023-01-20T16:22:18.080Z,16.25
2023-01-20T16:24:44.990Z,15.77
2023-01-20T16:27:22.006Z,16.10
2023-01-20T16:29:49.363Z,16.88
2023-01-20T16:32:18.255Z,16.83
2023-01-20T16:34:46.402Z,16.67
2023-01-20T16:37:14.495Z,16.52
2023-01-20T16:39:41.368Z,15.82
2023-01-20T16:42:11.975Z,16.42
2023-01-20T16:44:39.000Z,15.60
2023-01-20T16:47:06.556Z,16.48
2023-01-20T16:49:33.279Z,15.93
2023-01-20T16:51:59.963Z,15.57
2023-01-20T16:54:26.697Z,17.13
2023-01-20T16:56:53.624Z,16.45
2023-01-20T16:59:20.411Z,16.20
2023-01-20T17:01:50.187Z,15.52
2023-01-20T17:04:16.971Z,17.02
2023-01-20T17:06:43.755Z,16.42
2023-01-20T17:09:11.508Z,17.05
2023-01-20T17:11:40.403Z,15.07
2023-01-20T17:14:09.403Z,15.32
2023-01-20T17:16:37.373Z,16.00
2023-01-20T17:19:04.938Z,15.55
2023-01-20T17:21:33.770Z,16.67
2023-01-20T17:24:03.593Z,15.43
2023-01-20T17:26:30.923Z,16.10
2023-01-20T17:29:03.018Z,16.88
2023-01-20T17:31:33.062Z,16.95
2023-01-20T17:36:26.553Z,16.10
2023-01-20T17:38:53.244Z,16.83
2023-01-20T17:41:19.960Z,16.17
2023-01-20T17:43:46.788Z,17.40
2023-01-20T17:46:25.453Z,16.20
2023-01-20T17:48:52.188Z,15.82
2023-01-20T17:51:21.659Z,16.92
2023-01-20T17:53:49.227Z,17.60
2023-01-20T17:56:17.668Z,18.27
2023-01-20T17:58:46.138Z,17.23
2023-01-20T18:01:27.418Z,17.17
2023-01-20T18:03:55.680Z,17.48
2023-01-20T18:06:24.375Z,16.23
2023-01-20T18:08:56.221Z,16.17
2023-01-20T18:11:24.400Z,18.05
2023-01-20T18:13:55.044Z,16.98
2023-01-20T18:16:23.268Z,16.95
2023-01-20T18:18:50.506Z,17.40
2023-01-20T18:21:22.344Z,16.77
2023-01-20T18:23:50.748Z,16.70
2023-01-20T18:26:21.230Z,17.50
2023-01-20T18:28:48.863Z,17.90
2023-01-20T18:31:18.154Z,18.05
2023-01-20T18:33:50.420Z,17.50
2023-01-20T18:36:25.550Z,17.13
2023-01-20T18:38:57.979Z,18.50
2023-01-20T18:41:26.563Z,16.92
2023-01-20T18:43:53.581Z,17.75
2023-01-20T18:46:20.789Z,17.10
2023-01-20T18:48:48.946Z,16.30
2023-01-20T18:51:17.700Z,16.70
2023-01-20T18:53:45.970Z,16.58
2023-01-20T18:56:14.883Z,16.75
2023-01-20T18:58:49.628Z,16.70
2023-01-20T19:01:22.147Z,15.70
2023-01-20T19:03:50.402Z,16.02
2023-01-20T19:06:22.458Z,15.07
2023-01-20T19:08:49.821Z,15.35
2023-01-20T19:11:18.202Z,13.10
2023-01-20T19:13:46.816Z,14.95
2023-01-20T19:16:13.785Z,15.05
2023-01-20T19:18:42.180Z,14.68
2023-01-20T19:21:15.639Z,15.13
2023-01-20T19:23:43.049Z,14.30
2023-01-20T19:26:14.549Z,14.63
2023-01-20T19:28:41.451Z,14.38
2023-01-20T19:31:10.442Z,14.10
2023-01-20T19:33:37.723Z,15.35
2023-01-20T19:36:07.455Z,15.23
2023-01-20T19:38:37.344Z,14.75
2023-01-20T19:41:16.076Z,15.82
2023-01-20T19:43:43.413Z,15.05
2023-01-20T19:46:13.164Z,14.68
2023-01-20T19:48:40.957Z,15.00
2023-01-20T19:51:10.358Z,14.55
2023-01-20T19:53:37.564Z,14.90
2023-01-20T19:56:12.869Z,15.73
2023-01-20T19:58:40.403Z,15.40
2023-01-20T20:01:09.988Z,15.07
2023-01-20T20:03:37.675Z,14.80
2023-01-20T20:06:06.562Z,15.02
2023-01-20T20:08:36.230Z,15.27
2023-01-20T20:11:03.091Z,15.05
2023-01-20T20:13:29.779Z,15.05
2023-01-20T20:16:03.882Z,14.52
2023-01-20T20:18:30.788Z,14.35
2023-01-20T20:20:58.058Z,15.15
2023-01-20T20:23:25.367Z,15.07
2023-01-20T20:25:56.265Z,14.70
2023-01-20T20:28:27.584Z,14.95
2023-01-20T20:30:55.479Z,15.52
2023-01-20T20:33:23.974Z,14.93
2023-01-20T20:35:51.088Z,14.45
2023-01-20T20:38:17.815Z,14.55
2023-01-20T20:40:44.544Z,14.75
2023-01-20T20:43:11.232Z,14.65
2023-01-20T20:45:37.941Z,14.05
2023-01-20T20:48:04.917Z,14.68
2023-01-20T20:50:31.922Z,14.93
2023-01-20T20:52:59.125Z,14.23
2023-01-20T20:55:26.222Z,15.07
2023-01-20T20:57:52.953Z,14.55
2023-01-20T21:00:23.433Z,14.20
2023-01-20T21:02:50.318Z,13.77
2023-01-20T21:05:18.856Z,14.35
2023-01-20T21:07:46.160Z,15.18
2023-01-20T21:10:15.616Z,14.40
2023-01-20T21:12:43.981Z,13.95
2023-01-20T21:15:11.714Z,14.27
2023-01-20T21:17:39.556Z,15.32
2023-01-20T21:20:07.463Z,14.77
2023-01-20T21:22:34.551Z,14.55
2023-01-20T21:25:01.373Z,13.93
2023-01-20T21:27:28.117Z,14.48
2023-01-20T21:29:54.861Z,15.38
2023-01-20T21:32:21.605Z,14.48
2023-01-20T21:34:48.314Z,13.75
2023-01-20T21:37:15.091Z,13.70
2023-01-20T21:39:41.809Z,14.40
2023-01-20T21:42:09.102Z,12.95
2023-01-20T21:44:36.476Z,14.40
2023-01-20T21:47:07.573Z,12.93
2023-01-20T21:49:53.425Z,12.80
2023-01-20T21:52:41.283Z,13.77
2023-01-20T21:55:18.865Z,12.55
2023-01-20T21:57:55.250Z,11.32
2023-01-20T22:00:22.287Z,13.13
2023-01-20T22:02:49.671Z,11.95
2023-01-20T22:05:16.578Z,12.30
2023-01-20T22:07:43.352Z,13.20
2023-01-20T22:10:10.848Z,13.13
2023-01-20T22:12:37.632Z,13.18
2023-01-20T22:15:05.003Z,13.85
2023-01-20T22:17:32.472Z,13.70
2023-01-20T22:19:59.525Z,14.85
2023-01-20T22:22:26.227Z,14.43
2023-01-20T22:24:53.491Z,14.77
2023-01-20T22:27:20.279Z,14.02
2023-01-20T22:29:47.105Z,14.50
2023-01-20T22:32:14.175Z,14.52
2023-01-20T22:34:40.926Z,14.65
2023-01-20T22:37:07.631Z,14.43
2023-01-20T22:39:34.347Z,14.75
2023-01-20T22:42:01.087Z,14.05
2023-01-20T22:44:27.777Z,15.00
2023-01-20T22:46:54.512Z,15.73
2023-01-20T22:49:21.223Z,14.45
2023-01-20T22:51:47.993Z,14.63
2023-01-20T22:54:14.700Z,13.82
2023-01-20T22:56:41.403Z,14.13
2023-01-20T22:59:11.635Z,14.50
2023-01-20T23:01:38.353Z,14.68
2023-01-20T23:04:06.683Z,14.43
2023-01-20T23:06:35.195Z,14.32
2023-01-20T23:09:08.706Z,14.32
2023-01-20T23:11:40.093Z,14.90
2023-01-20T23:14:09.395Z,15.07
2023-01-20T23:16:36.674Z,15.68
2023-01-20T23:19:03.577Z,14.82
2023-01-20T23:21:30.301Z,15.50
2023-01-20T23:23:57.086Z,14.88
2023-01-20T23:26:26.529Z,14.88
2023-01-20T23:28:54.073Z,15.00
2023-01-20T23:31:22.779Z,14.48
2023-01-20T23:33:49.932Z,13.40
2023-01-20T23:36:20.433Z,15.10
2023-01-20T23:38:47.489Z,13.80
2023-01-20T23:41:15.351Z,14.68
2023-01-20T23:43:42.319Z,14.73
2023-01-20T23:46:09.759Z,14.55
2023-01-20T23:48:36.738Z,14.30
2023-01-20T23:51:06.005Z,14.40
2023-01-20T23:53:36.166Z,14.70
2023-01-20T23:58:31.209Z,15.57
